createdAt,value
2022-11-20T00:01:31.160Z,8.07
2022-11-20T00:03:59.131Z,8.27
2022-11-20T00:06:28.016Z,9.13
2022-11-20T00:09:01.171Z,8.13
2022-11-20T00:11:29.999Z,8.40
2022-11-20T00:13:59.128Z,8.73
2022-11-20T00:16:31.196Z,8.83
2022-11-20T00:18:57.966Z,8.23
2022-11-20T00:21:29.431Z,8.30
2022-11-20T00:23:57.622Z,8.63
2022-11-20T00:26:26.301Z,7.93
2022-11-20T00:28:56.275Z,8.50
2022-11-20T00:31:23.712Z,8.80
2022-11-20T00:33:51.040Z,7.63
2022-11-20T00:36:20.962Z,8.47
2022-11-20T00:38:50.122Z,9.33
2022-11-20T00:41:17.215Z,8.30
2022-11-20T00:43:44.408Z,7.70
2022-11-20T00:46:16.378Z,9.60
2022-11-20T00:48:44.126Z,9.33
2022-11-20T00:51:14.051Z,9.07
2022-11-20T00:53:40.965Z,8.60
2022-11-20T00:56:11.754Z,9.40
2022-11-20T00:58:40.595Z,8.27
2022-11-20T01:01:08.686Z,8.63
2022-11-20T01:03:37.954Z,9.27
2022-11-20T01:06:08.030Z,8.37
2022-11-20T01:08:36.281Z,8.50
2022-11-20T01:11:05.679Z,8.37
2022-11-20T01:13:39.590Z,8.53
2022-11-20T01:16:11.084Z,8.47
2022-11-20T01:18:40.021Z,9.40
2022-11-20T01:21:10.673Z,9.17
2022-11-20T01:23:40.490Z,8.20
2022-11-20T01:26:10.031Z,9.00
2022-11-20T01:28:37.526Z,8.70
2022-11-20T01:31:13.910Z,8.90
2022-11-20T01:33:42.098Z,8.53
2022-11-20T01:36:09.811Z,8.00
2022-11-20T01:38:36.731Z,8.60
2022-11-20T01:41:03.874Z,8.73
2022-11-20T01:43:30.580Z,8.47
2022-11-20T01:46:23.674Z,8.50
2022-11-20T01:49:11.937Z,7.97
2022-11-20T01:52:02.498Z,8.00
2022-11-20T01:54:39.890Z,8.00
2022-11-20T01:57:11.806Z,8.23
2022-11-20T01:59:45.134Z,7.60
2022-11-20T02:02:11.859Z,8.47
2022-11-20T02:04:38.814Z,8.43
2022-11-20T02:07:06.721Z,8.63
2022-11-20T02:09:33.443Z,8.87
2022-11-20T02:12:01.017Z,8.83
2022-11-20T02:14:28.238Z,8.63
2022-11-20T02:16:56.128Z,8.33
2022-11-20T02:19:28.241Z,8.50
2022-11-20T02:22:17.233Z,8.30
2022-11-20T02:24:46.037Z,9.23
2022-11-20T02:27:14.923Z,8.23
2022-11-20T02:29:56.590Z,8.87
2022-11-20T02:32:43.727Z,8.57
2022-11-20T02:35:31.473Z,8.53
2022-11-20T02:38:02.086Z,8.90
2022-11-20T02:40:29.490Z,9.20
2022-11-20T02:42:57.572Z,9.07
2022-11-20T02:45:25.365Z,8.73
2022-11-20T02:47:52.561Z,7.90
2022-11-20T02:50:19.708Z,8.63
2022-11-20T02:52:46.715Z,8.40
2022-11-20T02:55:13.547Z,7.83
2022-11-20T02:57:40.435Z,8.93
2022-11-20T03:00:08.337Z,8.37
2022-11-20T03:02:35.193Z,8.83
2022-11-20T03:05:02.385Z,8.10
2022-11-20T03:07:29.121Z,8.37
2022-11-20T03:09:55.920Z,8.80
2022-11-20T03:12:22.625Z,8.97
2022-11-20T03:14:53.086Z,8.40
2022-11-20T03:17:21.109Z,8.13
2022-11-20T03:19:48.045Z,8.43
2022-11-20T03:22:17.727Z,8.93
2022-11-20T03:24:44.574Z,9.00
2022-11-20T03:27:11.391Z,9.40
2022-11-20T03:29:38.061Z,7.90
2022-11-20T03:32:05.013Z,8.50
2022-11-20T03:34:31.759Z,8.87
2022-11-20T03:36:58.464Z,8.50
2022-11-20T03:39:26.058Z,7.83
2022-11-20T03:41:55.661Z,8.30
2022-11-20T03:44:23.279Z,7.03
2022-11-20T03:46:49.972Z,8.03
2022-11-20T03:49:16.796Z,8.10
2022-11-20T03:51:43.492Z,7.87
2022-11-20T03:54:10.493Z,7.90
2022-11-20T03:56:39.238Z,8.87
2022-11-20T03:59:06.819Z,8.33
2022-11-20T04:01:38.499Z,8.30
2022-11-20T04:04:05.918Z,7.50
2022-11-20T04:06:37.963Z,7.53
2022-11-20T04:09:08.445Z,8.40
2022-11-20T04:11:38.324Z,8.50
2022-11-20T04:14:06.859Z,7.53
2022-11-20T04:16:38.569Z,9.03
2022-11-20T04:19:10.910Z,8.27
2022-11-20T04:21:37.726Z,8.53
2022-11-20T04:24:07.903Z,8.13
2022-11-20T04:26:35.375Z,8.47
2022-11-20T04:29:05.064Z,9.37
2022-11-20T04:31:34.399Z,8.40
2022-11-20T04:34:03.067Z,7.43
2022-11-20T04:36:30.931Z,8.57
2022-11-20T04:38:59.530Z,8.93
2022-11-20T04:41:29.073Z,8.33
2022-11-20T04:44:03.390Z,9.00
2022-11-20T04:46:39.024Z,8.03
2022-11-20T04:49:06.571Z,7.93
2022-11-20T04:51:34.381Z,7.33
2022-11-20T04:54:01.430Z,8.67
2022-11-20T04:56:28.120Z,8.93
2022-11-20T04:58:57.240Z,8.27
2022-11-20T05:01:27.838Z,7.83
2022-11-20T05:03:54.615Z,9.30
2022-11-20T05:06:25.110Z,8.17
2022-11-20T05:08:52.032Z,8.97
2022-11-20T05:11:21.660Z,8.27
2022-11-20T05:13:49.347Z,9.07
2022-11-20T05:16:22.603Z,7.90
2022-11-20T05:18:50.244Z,8.50
2022-11-20T05:21:18.342Z,7.57
2022-11-20T05:23:45.769Z,9.23
2022-11-20T05:26:23.043Z,8.57
2022-11-20T05:28:50.850Z,8.47
2022-11-20T05:31:26.206Z,7.80
2022-11-20T05:33:55.276Z,8.30
2022-11-20T05:36:22.124Z,9.53
2022-11-20T05:38:50.849Z,8.83
2022-11-20T05:41:21.695Z,7.97
2022-11-20T05:43:49.787Z,8.60
2022-11-20T05:46:27.795Z,7.90
2022-11-20T05:48:56.208Z,8.97
2022-11-20T05:51:27.974Z,8.87
2022-11-20T05:53:56.757Z,9.10
2022-11-20T05:56:23.562Z,8.53
2022-11-20T05:58:50.925Z,9.43
2022-11-20T06:01:25.600Z,9.47
2022-11-20T06:03:53.533Z,7.90
2022-11-20T06:06:23.910Z,9.83
2022-11-20T06:08:50.856Z,9.97
2022-11-20T06:11:18.542Z,9.00
2022-11-20T06:13:46.530Z,9.37
2022-11-20T06:16:15.230Z,9.13
2022-11-20T06:18:42.008Z,9.60
2022-11-20T06:21:14.349Z,9.63
2022-11-20T06:23:41.049Z,10.10
2022-11-20T06:26:13.167Z,9.30
2022-11-20T06:28:40.630Z,10.00
2022-11-20T06:31:16.151Z,9.80
2022-11-20T06:33:43.895Z,10.23
2022-11-20T06:36:12.550Z,9.70
2022-11-20T06:38:40.352Z,11.60
2022-11-20T06:41:09.750Z,10.17
2022-11-20T06:43:36.446Z,10.80
2022-11-20T06:46:03.627Z,10.30
2022-11-20T06:48:33.439Z,11.90
2022-11-20T06:51:02.709Z,10.57
2022-11-20T06:53:29.395Z,11.10
2022-11-20T06:55:57.741Z,11.33
2022-11-20T06:58:27.381Z,10.00
2022-11-20T07:00:54.229Z,9.93
2022-11-20T07:03:21.005Z,10.10
2022-11-20T07:05:47.817Z,10.77
2022-11-20T07:08:14.540Z,11.47
2022-11-20T07:10:41.427Z,11.13
2022-11-20T07:13:08.188Z,11.03
2022-11-20T07:15:35.790Z,11.60
2022-11-20T07:18:03.053Z,12.30
2022-11-20T07:20:29.946Z,11.20
2022-11-20T07:22:58.037Z,11.53
2022-11-20T07:25:26.639Z,9.23
2022-11-20T07:27:53.509Z,12.17
2022-11-20T07:30:20.435Z,11.13
2022-11-20T07:32:48.724Z,11.10
2022-11-20T07:35:17.869Z,11.23
2022-11-20T07:37:46.751Z,11.33
2022-11-20T07:40:14.551Z,11.67
2022-11-20T07:42:51.870Z,11.43
2022-11-20T07:45:19.669Z,11.30
2022-11-20T07:47:46.608Z,11.40
2022-11-20T07:50:14.630Z,10.53
2022-11-20T07:52:44.520Z,11.00
2022-11-20T07:55:14.423Z,11.50
2022-11-20T07:57:44.362Z,12.23
2022-11-20T08:00:12.537Z,12.50
2022-11-20T08:02:42.754Z,12.37
2022-11-20T08:05:11.219Z,12.00
2022-11-20T08:07:41.434Z,11.87
2022-11-20T08:10:11.770Z,13.30
2022-11-20T08:13:07.278Z,13.17
2022-11-20T08:15:34.604Z,11.90
2022-11-20T08:21:03.112Z,11.83
2022-11-20T08:23:31.985Z,11.67
2022-11-20T08:25:58.668Z,12.83
2022-11-20T08:28:28.208Z,13.37
2022-11-20T08:31:02.517Z,13.33
2022-11-20T08:33:29.972Z,13.97
2022-11-20T08:36:04.495Z,12.37
2022-11-20T08:38:31.964Z,13.37
2022-11-20T08:41:22.239Z,12.63
2022-11-20T08:43:49.283Z,13.63
2022-11-20T08:46:18.842Z,13.13
2022-11-20T08:48:46.086Z,13.83
2022-11-20T08:51:13.282Z,14.00
2022-11-20T08:53:40.396Z,14.73
2022-11-20T08:56:12.205Z,14.10
2022-11-20T08:59:09.930Z,13.80
2022-11-20T09:01:27.404Z,13.60
2022-11-20T09:03:57.895Z,13.60
2022-11-20T09:06:24.836Z,14.83
2022-11-20T09:08:54.857Z,14.63
2022-11-20T09:11:22.935Z,15.40
2022-11-20T09:13:50.391Z,14.13
2022-11-20T09:16:24.060Z,14.63
2022-11-20T09:19:02.242Z,14.70
2022-11-20T09:21:41.532Z,15.63
2022-11-20T09:24:08.412Z,14.93
2022-11-20T09:26:35.208Z,15.00
2022-11-20T09:29:02.352Z,15.80
2022-11-20T09:31:29.134Z,15.33
2022-11-20T09:33:56.182Z,14.87
2022-11-20T09:36:23.022Z,15.03
2022-11-20T09:38:49.971Z,14.67
2022-11-20T09:42:00.633Z,14.40
2022-11-20T09:44:36.654Z,14.83
2022-11-20T09:47:31.018Z,14.63
2022-11-20T09:50:32.020Z,14.97
2022-11-20T09:53:05.665Z,15.03
2022-11-20T09:55:32.956Z,14.90
2022-11-20T09:58:00.600Z,15.90
2022-11-20T10:00:29.024Z,14.97
2022-11-20T10:03:17.637Z,15.50
2022-11-20T10:05:52.191Z,15.33
2022-11-20T10:08:42.687Z,15.90
2022-11-20T10:11:36.107Z,15.40
2022-11-20T10:14:27.502Z,15.37
2022-11-20T10:17:21.419Z,15.43
2022-11-20T10:20:25.447Z,14.67
2022-11-20T10:22:55.076Z,15.90
2022-11-20T10:25:28.884Z,17.20
2022-11-20T10:28:20.211Z,16.17
2022-11-20T10:30:52.541Z,17.30
2022-11-20T10:33:34.926Z,15.87
2022-11-20T10:36:28.609Z,15.70
2022-11-20T10:39:01.643Z,16.17
2022-11-20T10:41:43.014Z,15.17
2022-11-20T10:44:46.203Z,16.37
2022-11-20T10:47:22.641Z,15.37
2022-11-20T10:49:55.836Z,18.03
2022-11-20T10:52:59.406Z,17.33
2022-11-20T10:55:29.279Z,15.73
2022-11-20T10:58:09.663Z,17.53
2022-11-20T11:00:36.597Z,17.20
2022-11-20T11:03:04.226Z,18.40
2022-11-20T11:05:47.426Z,17.13
2022-11-20T11:08:17.803Z,17.13
2022-11-20T11:10:52.708Z,16.83
2022-11-20T11:13:30.418Z,17.27
2022-11-20T11:15:58.384Z,17.07
2022-11-20T11:18:31.174Z,17.83
2022-11-20T11:21:00.418Z,18.63
2022-11-20T11:23:42.367Z,18.43
2022-11-20T11:26:24.619Z,17.60
2022-11-20T11:29:02.610Z,17.17
2022-11-20T11:31:31.913Z,19.17
2022-11-20T11:34:06.687Z,18.50
2022-11-20T11:36:35.987Z,19.03
2022-11-20T11:39:05.376Z,19.47
2022-11-20T11:41:36.682Z,18.50
2022-11-20T11:44:45.057Z,18.93
2022-11-20T11:47:29.309Z,18.47
2022-11-20T11:50:11.132Z,19.27
2022-11-20T11:52:49.026Z,19.80
2022-11-20T11:55:32.671Z,19.00
2022-11-20T11:58:13.047Z,20.27
2022-11-20T12:00:48.774Z,20.07
2022-11-20T12:03:31.799Z,20.10
2022-11-20T12:06:05.628Z,20.47
2022-11-20T12:08:41.103Z,20.53
2022-11-20T12:11:32.350Z,19.17
2022-11-20T12:14:04.333Z,19.53
2022-11-20T12:16:37.663Z,21.10
2022-11-20T12:19:13.147Z,18.97
2022-11-20T12:22:05.469Z,20.00
2022-11-20T12:24:51.252Z,20.53
2022-11-20T12:27:39.274Z,20.77
2022-11-20T12:30:12.007Z,19.97
2022-11-20T12:32:57.316Z,20.60
2022-11-20T12:36:01.113Z,20.57
2022-11-20T12:39:03.703Z,20.30
2022-11-20T12:42:03.318Z,21.40
2022-11-20T12:45:03.918Z,20.93
2022-11-20T12:47:53.244Z,22.03
2022-11-20T12:50:53.288Z,21.67
2022-11-20T12:53:41.484Z,23.47
2022-11-20T12:56:25.346Z,22.70
2022-11-20T12:59:13.894Z,23.13
2022-11-20T13:02:16.531Z,22.50
2022-11-20T13:04:49.223Z,24.23
2022-11-20T13:07:19.535Z,22.37
2022-11-20T13:09:49.836Z,23.73
2022-11-20T13:12:16.730Z,23.10
2022-11-20T13:15:00.043Z,25.63
2022-11-20T13:17:35.088Z,22.57
2022-11-20T13:20:03.165Z,24.37
2022-11-20T13:22:55.825Z,22.20
2022-11-20T13:25:32.353Z,21.40
2022-11-20T13:28:02.034Z,21.83
2022-11-20T13:30:31.161Z,23.27
2022-11-20T13:33:07.471Z,22.40
2022-11-20T13:35:41.437Z,21.73
2022-11-20T13:38:15.632Z,23.13
2022-11-20T13:40:54.944Z,24.63
2022-11-20T13:43:39.946Z,22.53
2022-11-20T13:46:09.216Z,22.00
2022-11-20T13:48:46.947Z,21.60
2022-11-20T13:51:38.206Z,22.40
2022-11-20T13:54:52.906Z,23.27
2022-11-20T13:57:41.271Z,21.87
2022-11-20T14:00:18.250Z,22.50
2022-11-20T14:02:53.339Z,23.57
2022-11-20T14:05:24.934Z,23.07
2022-11-20T14:07:53.002Z,21.77
2022-11-20T14:10:31.725Z,21.63
2022-11-20T14:13:10.394Z,22.63
2022-11-20T14:15:41.841Z,20.97
2022-11-20T14:18:20.824Z,21.97
2022-11-20T14:20:47.824Z,21.80
2022-11-20T14:23:29.666Z,22.07
2022-11-20T14:25:57.169Z,21.73
2022-11-20T14:28:29.663Z,22.30
2022-11-20T14:30:58.010Z,23.60
2022-11-20T14:33:27.472Z,23.33
2022-11-20T14:35:57.418Z,22.23
2022-11-20T14:38:29.769Z,23.53
2022-11-20T14:41:07.548Z,23.90
2022-11-20T14:43:36.963Z,24.00
2022-11-20T14:46:09.075Z,23.87
2022-11-20T14:48:44.423Z,22.97
2022-11-20T14:51:37.720Z,24.47
2022-11-20T14:54:11.728Z,25.53
2022-11-20T14:56:41.439Z,24.77
2022-11-20T14:59:10.329Z,24.60
2022-11-20T15:01:38.560Z,24.83
2022-11-20T15:04:11.621Z,25.47
2022-11-20T15:06:49.561Z,24.97
2022-11-20T15:09:17.004Z,25.27
2022-11-20T15:11:58.013Z,24.43
2022-11-20T15:14:28.598Z,23.17
2022-11-20T15:16:55.494Z,24.23
2022-11-20T15:19:24.609Z,23.37
2022-11-20T15:21:51.680Z,23.37
2022-11-20T15:24:18.666Z,23.27
2022-11-20T15:26:45.716Z,23.27
2022-11-20T15:29:15.556Z,21.87
2022-11-20T15:31:44.290Z,24.23
2022-11-20T15:34:15.581Z,22.70
2022-11-20T15:36:43.758Z,22.67
2022-11-20T15:39:12.383Z,22.77
2022-11-20T15:41:40.039Z,22.17
2022-11-20T15:44:06.979Z,22.00
2022-11-20T15:46:39.451Z,22.70
2022-11-20T15:49:07.367Z,22.77
2022-11-20T15:51:36.632Z,21.27
2022-11-20T15:54:24.190Z,22.37
2022-11-20T15:56:54.636Z,22.57
2022-11-20T15:59:24.793Z,22.53
2022-11-20T16:01:51.605Z,22.57
2022-11-20T16:04:19.544Z,23.00
2022-11-20T16:06:46.311Z,22.87
2022-11-20T16:09:13.156Z,21.87
2022-11-20T16:11:39.952Z,21.43
2022-11-20T16:14:26.513Z,21.90
2022-11-20T16:16:53.440Z,19.73
2022-11-20T16:19:20.229Z,21.63
2022-11-20T16:21:47.454Z,21.27
2022-11-20T16:24:18.932Z,20.70
2022-11-20T16:26:45.728Z,20.20
2022-11-20T16:29:12.785Z,21.60
2022-11-20T16:31:39.566Z,21.13
2022-11-20T16:34:12.443Z,20.83
2022-11-20T16:36:44.450Z,20.30
2022-11-20T16:39:11.742Z,19.63
2022-11-20T16:41:38.771Z,19.10
2022-11-20T16:44:10.799Z,18.73
2022-11-20T16:46:37.807Z,19.17
2022-11-20T16:49:07.574Z,19.23
2022-11-20T16:51:37.636Z,19.10
2022-11-20T16:54:06.912Z,19.90
2022-11-20T16:56:41.071Z,20.03
2022-11-20T16:59:07.890Z,18.53
2022-11-20T17:01:38.635Z,18.63
2022-11-20T17:04:07.005Z,20.47
2022-11-20T17:06:36.193Z,17.27
2022-11-20T17:09:03.796Z,19.00
2022-11-20T17:11:30.728Z,17.33
2022-11-20T17:14:03.584Z,16.37
2022-11-20T17:16:31.247Z,17.63
2022-11-20T17:19:02.907Z,16.93
2022-11-20T17:21:30.859Z,16.40
2022-11-20T17:24:02.331Z,17.60
2022-11-20T17:26:29.482Z,17.10
2022-11-20T17:29:01.858Z,16.50
2022-11-20T17:31:30.924Z,17.37
2022-11-20T17:33:59.687Z,18.40
2022-11-20T17:36:27.381Z,16.17
2022-11-20T17:38:54.540Z,18.07
2022-11-20T17:41:23.485Z,16.00
2022-11-20T17:43:52.937Z,16.10
2022-11-20T17:46:21.920Z,15.03
2022-11-20T17:48:50.204Z,15.43
2022-11-20T17:51:19.296Z,16.13
2022-11-20T17:53:48.076Z,16.53
2022-11-20T17:56:35.857Z,17.03
2022-11-20T17:59:10.892Z,16.97
2022-11-20T18:01:39.580Z,17.73
2022-11-20T18:04:06.894Z,18.17
2022-11-20T18:06:33.632Z,17.13
2022-11-20T18:09:02.433Z,16.17
2022-11-20T18:11:34.703Z,15.40
2022-11-20T18:14:21.647Z,16.53
2022-11-20T18:16:53.280Z,15.87
2022-11-20T18:19:23.484Z,15.60
2022-11-20T18:21:50.500Z,16.87
2022-11-20T18:24:17.341Z,15.80
2022-11-20T18:26:44.776Z,14.60
2022-11-20T18:29:13.054Z,16.30
2022-11-20T18:31:40.810Z,16.33
2022-11-20T18:34:11.568Z,16.47
2022-11-20T18:36:39.015Z,16.63
2022-11-20T18:39:06.227Z,17.10
2022-11-20T18:41:53.470Z,15.73
2022-11-20T18:44:41.351Z,16.73
2022-11-20T18:47:14.588Z,16.70
2022-11-20T18:49:46.339Z,16.40
2022-11-20T18:52:13.410Z,17.00
2022-11-20T18:54:42.931Z,16.90
2022-11-20T18:57:16.557Z,16.03
2022-11-20T18:59:43.655Z,16.53
2022-11-20T19:02:20.320Z,18.00
2022-11-20T19:04:47.595Z,17.17
2022-11-20T19:07:15.256Z,17.60
2022-11-20T19:09:43.475Z,17.20
2022-11-20T19:12:12.508Z,17.57
2022-11-20T19:14:39.788Z,18.63
2022-11-20T19:17:07.561Z,16.73
2022-11-20T19:19:35.086Z,17.53
2022-11-20T19:22:01.843Z,17.00
2022-11-20T19:24:29.139Z,16.47
2022-11-20T19:26:56.370Z,16.83
2022-11-20T19:29:24.659Z,18.10
2022-11-20T19:31:51.801Z,15.87
2022-11-20T19:34:18.761Z,15.47
2022-11-20T19:36:45.836Z,14.90
2022-11-20T19:39:13.104Z,16.17
2022-11-20T19:41:41.355Z,15.37
2022-11-20T19:44:10.936Z,15.57
2022-11-20T19:46:39.050Z,15.27
2022-11-20T19:49:10.887Z,15.43
2022-11-20T19:51:39.326Z,16.47
2022-11-20T19:54:06.744Z,17.13
2022-11-20T19:56:35.210Z,16.27
2022-11-20T19:59:02.385Z,16.03
2022-11-20T20:01:31.201Z,16.93
2022-11-20T20:04:03.745Z,16.93
2022-11-20T20:06:31.299Z,16.03
2022-11-20T20:09:03.907Z,17.17
2022-11-20T20:11:31.921Z,17.60
2022-11-20T20:14:05.155Z,16.40
2022-11-20T20:16:31.963Z,17.37
2022-11-20T20:19:01.826Z,17.07
2022-11-20T20:21:30.575Z,16.37
2022-11-20T20:23:58.486Z,17.20
2022-11-20T20:26:28.022Z,17.03
2022-11-20T20:28:55.221Z,17.20
2022-11-20T20:31:24.539Z,16.33
2022-11-20T20:33:51.496Z,16.97
2022-11-20T20:36:21.734Z,17.17
2022-11-20T20:38:52.885Z,16.13
2022-11-20T20:41:20.735Z,16.00
2022-11-20T20:44:06.213Z,16.30
2022-11-20T20:46:33.361Z,17.60
2022-11-20T20:49:00.303Z,16.70
2022-11-20T20:51:27.305Z,16.57
2022-11-20T20:53:54.485Z,16.97
2022-11-20T20:56:21.368Z,16.00
2022-11-20T20:58:48.242Z,17.30
2022-11-20T21:01:17.702Z,16.67
2022-11-20T21:03:44.844Z,15.70
2022-11-20T21:06:12.681Z,16.77
2022-11-20T21:08:41.610Z,15.67
2022-11-20T21:11:12.134Z,15.90
2022-11-20T21:13:40.538Z,17.47
2022-11-20T21:16:07.695Z,17.13
2022-11-20T21:18:37.845Z,16.17
2022-11-20T21:21:24.575Z,15.70
2022-11-20T21:23:53.358Z,15.97
2022-11-20T21:26:21.219Z,17.00
2022-11-20T21:28:49.963Z,16.90
2022-11-20T21:31:27.235Z,17.17
2022-11-20T21:33:55.759Z,17.40
2022-11-20T21:36:25.615Z,17.40
2022-11-20T21:38:56.638Z,18.00
2022-11-20T21:41:28.189Z,16.50
2022-11-20T21:44:29.104Z,16.97
2022-11-20T21:46:44.728Z,16.87
2022-11-20T21:49:15.292Z,16.40
2022-11-20T21:51:42.014Z,17.63
2022-11-20T21:54:10.944Z,17.53
2022-11-20T21:56:37.749Z,17.47
2022-11-20T21:59:06.632Z,17.80
2022-11-20T22:01:33.595Z,17.70
2022-11-20T22:04:02.335Z,19.27
2022-11-20T22:06:33.925Z,18.13
2022-11-20T22:09:02.412Z,18.53
2022-11-20T22:11:29.238Z,17.70
2022-11-20T22:14:14.484Z,17.20
2022-11-20T22:16:41.295Z,16.10
2022-11-20T22:19:08.186Z,17.13
2022-11-20T22:21:35.539Z,17.00
2022-11-20T22:24:02.495Z,15.63
2022-11-20T22:26:33.937Z,14.27
2022-11-20T22:29:04.467Z,16.30
2022-11-20T22:31:32.178Z,17.13
2022-11-20T22:34:04.511Z,16.03
2022-11-20T22:36:32.204Z,15.90
2022-11-20T22:39:01.961Z,16.17
2022-11-20T22:41:29.127Z,16.97
2022-11-20T22:44:01.388Z,16.83
2022-11-20T22:46:31.268Z,16.87
2022-11-20T22:49:00.557Z,17.13
2022-11-20T22:51:32.961Z,16.73
2022-11-20T22:54:00.836Z,16.57
2022-11-20T22:56:31.022Z,17.37
2022-11-20T22:58:58.205Z,17.33
2022-11-20T23:01:27.112Z,18.30
2022-11-20T23:03:59.573Z,18.63
2022-11-20T23:06:29.936Z,18.70
2022-11-20T23:08:59.705Z,18.03
2022-11-20T23:11:28.608Z,18.27
2022-11-20T23:14:00.350Z,17.80
2022-11-20T23:16:29.265Z,17.90
2022-11-20T23:18:58.662Z,18.33
2022-11-20T23:21:26.870Z,16.93
2022-11-20T23:23:56.272Z,16.77
2022-11-20T23:26:25.658Z,17.57
2022-11-20T23:28:57.760Z,15.67
2022-11-20T23:31:25.692Z,16.57
2022-11-20T23:33:52.506Z,15.57
2022-11-20T23:36:19.300Z,16.53
2022-11-20T23:38:47.220Z,16.43
2022-11-20T23:41:14.435Z,16.03
2022-11-20T23:43:41.450Z,17.33
2022-11-20T23:46:11.460Z,17.03
2022-11-20T23:48:40.633Z,15.80
2022-11-20T23:51:07.867Z,17.47
2022-11-20T23:53:37.922Z,18.33
2022-11-20T23:56:05.946Z,18.43
2022-11-20T23:58:35.077Z,18.97
